Wetterdaten: Woche 19.10.20 - 25.10.20 (KW43)
Datum Zeit Temp. Auen Feucht Auen Luftdruck Regen Richtung Windben
19.10.2020 00:00 5,9 C 89 % 1024,5 hPa 0,0 mm O-SO 0,0 km/h (0 Bft)
19.10.2020 01:00 5,8 C 90 % 1024,7 hPa 0,0 mm O-SO 0,0 km/h (0 Bft)
19.10.2020 02:00 5,8 C 90 % 1024,6 hPa 0,0 mm O-SO 0,0 km/h (0 Bft)
19.10.2020 03:00 5,7 C 90 % 1024,4 hPa 0,0 mm O-SO 0,3 km/h (0 Bft)
19.10.2020 04:00 5,7 C 90 % 1024,2 hPa 0,0 mm O-SO 0,1 km/h (0 Bft)
19.10.2020 05:00 5,7 C 91 % 1024,1 hPa 0,0 mm O-SO 0,0 km/h (0 Bft)
19.10.2020 06:00 5,7 C 91 % 1024,1 hPa 0,0 mm O-SO 0,8 km/h (0 Bft)
19.10.2020 07:00 5,7 C 91 % 1024,3 hPa 0,0 mm W 1,9 km/h (1 Bft)
19.10.2020 08:00 6,2 C 92 % 1024,8 hPa 0,0 mm W 0,1 km/h (0 Bft)
19.10.2020 09:00 7,8 C 92 % 1025,2 hPa 0,0 mm W 2,3 km/h (1 Bft)
19.10.2020 10:00 9,1 C 87 % 1025,1 hPa 0,0 mm O 6,9 km/h (2 Bft)
19.10.2020 11:00 10,1 C 84 % 1024,7 hPa 0,0 mm SO 11,0 km/h (2 Bft)
19.10.2020 12:00 10,6 C 82 % 1024,2 hPa 0,0 mm O 13,3 km/h (3 Bft)
19.10.2020 13:00 10,9 C 80 % 1023,7 hPa 0,0 mm O-SO 13,7 km/h (3 Bft)
19.10.2020 14:00 10,9 C 80 % 1022,7 hPa 0,0 mm O-SO 13,8 km/h (3 Bft)
19.10.2020 15:00 11,0 C 79 % 1022,2 hPa 0,0 mm O 12,5 km/h (3 Bft)
19.10.2020 16:00 10,6 C 80 % 1022,0 hPa 0,0 mm O-SO 12,5 km/h (3 Bft)
19.10.2020 17:00 9,5 C 82 % 1021,9 hPa 0,0 mm O-SO 9,8 km/h (2 Bft)
19.10.2020 18:00 8,0 C 84 % 1022,1 hPa 0,0 mm O 6,3 km/h (2 Bft)
19.10.2020 19:00 6,5 C 85 % 1022,7 hPa 0,0 mm O 0,0 km/h (0 Bft)
19.10.2020 20:00 5,4 C 86 % 1022,9 hPa 0,0 mm O 0,0 km/h (0 Bft)
19.10.2020 21:00 4,3 C 86 % 1023,0 hPa 0,0 mm O 0,0 km/h (0 Bft)
19.10.2020 22:00 3,4 C 87 % 1022,7 hPa 0,0 mm O 0,0 km/h (0 Bft)
19.10.2020 23:00 2,9 C 88 % 1022,5 hPa 0,0 mm O 0,0 km/h (0 Bft)
20.10.2020 00:00 2,8 C 89 % 1022,6 hPa 0,0 mm O 0,0 km/h (0 Bft)
20.10.2020 01:00 2,6 C 89 % 1022,3 hPa 0,0 mm O 0,0 km/h (0 Bft)
20.10.2020 02:00 2,9 C 90 % 1021,8 hPa 0,0 mm O 0,0 km/h (0 Bft)
20.10.2020 03:00 3,8 C 91 % 1021,0 hPa 0,0 mm O 0,0 km/h (0 Bft)
20.10.2020 04:00 3,7 C 91 % 1020,5 hPa 0,0 mm O 0,0 km/h (0 Bft)
20.10.2020 05:00 2,5 C 90 % 1020,4 hPa 0,0 mm O 0,7 km/h (0 Bft)
20.10.2020 06:00 1,4 C 90 % 1020,5 hPa 0,0 mm O 0,4 km/h (0 Bft)
20.10.2020 07:00 0,8 C 91 % 1020,5 hPa 0,0 mm O 0,8 km/h (0 Bft)
20.10.2020 08:00 2,2 C 92 % 1020,9 hPa 0,0 mm W-NW 1,3 km/h (1 Bft)
20.10.2020 09:00 6,6 C 89 % 1020,9 hPa 0,0 mm W-NW 1,6 km/h (1 Bft)
20.10.2020 10:00 8,7 C 81 % 1020,3 hPa 0,0 mm SO 7,1 km/h (2 Bft)
20.10.2020 11:00 10,2 C 78 % 1019,4 hPa 0,0 mm SO 7,8 km/h (2 Bft)
20.10.2020 12:00 12,0 C 73 % 1019,1 hPa 0,0 mm S-SO 6,7 km/h (2 Bft)
20.10.2020 13:00 13,0 C 75 % 1018,6 hPa 0,0 mm O-SO 10,2 km/h (2 Bft)
20.10.2020 14:00 11,8 C 79 % 1018,3 hPa 0,0 mm O-SO 9,8 km/h (2 Bft)
20.10.2020 15:00 12,6 C 76 % 1017,8 hPa 0,0 mm O-SO 4,3 km/h (1 Bft)
20.10.2020 16:00 11,0 C 84 % 1017,1 hPa 0,0 mm O-SO 11,2 km/h (2 Bft)
20.10.2020 17:00 9,9 C 85 % 1016,3 hPa 0,0 mm O 5,2 km/h (1 Bft)
20.10.2020 18:00 8,6 C 85 % 1017,0 hPa 0,0 mm W-NW 0,3 km/h (0 Bft)
20.10.2020 19:00 6,8 C 85 % 1018,0 hPa 0,0 mm W-NW 0,0 km/h (0 Bft)
20.10.2020 20:00 5,6 C 86 % 1017,7 hPa 0,0 mm W-NW 0,7 km/h (0 Bft)
20.10.2020 21:00 4,5 C 87 % 1017,4 hPa 0,0 mm W-NW 2,3 km/h (1 Bft)
20.10.2020 22:00 3,9 C 88 % 1017,9 hPa 0,0 mm W-NW 0,1 km/h (0 Bft)
20.10.2020 23:00 3,4 C 89 % 1017,6 hPa 0,0 mm W-NW 2,1 km/h (1 Bft)
21.10.2020 00:00 3,1 C 89 % 1017,3 hPa 0,0 mm W-NW 0,8 km/h (0 Bft)
21.10.2020 01:00 2,7 C 89 % 1017,1 hPa 0,0 mm W-NW 1,6 km/h (1 Bft)
21.10.2020 02:00 2,3 C 90 % 1016,8 hPa 0,0 mm W-NW 0,0 km/h (0 Bft)
21.10.2020 03:00 2,1 C 90 % 1015,8 hPa 0,0 mm W-NW 0,0 km/h (0 Bft)
21.10.2020 04:00 2,1 C 90 % 1014,8 hPa 0,0 mm W-NW 1,5 km/h (1 Bft)
21.10.2020 05:00 2,1 C 91 % 1014,2 hPa 0,0 mm W-NW 1,5 km/h (1 Bft)
21.10.2020 06:00 2,4 C 91 % 1013,6 hPa 0,2 mm W-NW 2,3 km/h (1 Bft)
21.10.2020 07:00 2,8 C 91 % 1013,5 hPa 0,0 mm W-NW 2,9 km/h (1 Bft)
21.10.2020 08:00 4,2 C 92 % 1014,0 hPa 0,0 mm W-NW 0,0 km/h (0 Bft)
21.10.2020 09:00 10,2 C 86 % 1014,2 hPa 0,0 mm W-NW 0,0 km/h (0 Bft)
21.10.2020 10:00 12,6 C 75 % 1014,2 hPa 0,0 mm W-NW 0,5 km/h (0 Bft)
21.10.2020 11:00 12,7 C 75 % 1014,2 hPa 0,0 mm O-SO 6,7 km/h (2 Bft)
21.10.2020 12:00 13,0 C 75 % 1013,8 hPa 0,0 mm SO 7,1 km/h (2 Bft)
21.10.2020 13:00 14,2 C 71 % 1013,5 hPa 0,0 mm S-SO 2,5 km/h (1 Bft)
21.10.2020 14:00 16,0 C 68 % 1013,8 hPa 0,0 mm W 10,0 km/h (2 Bft)
21.10.2020 15:00 15,4 C 73 % 1014,7 hPa 0,0 mm W 11,5 km/h (2 Bft)
21.10.2020 16:00 13,0 C 81 % 1015,0 hPa 0,0 mm O 10,3 km/h (2 Bft)
21.10.2020 17:00 11,7 C 84 % 1015,0 hPa 0,0 mm SO 4,3 km/h (1 Bft)
21.10.2020 18:00 10,7 C 84 % 1015,2 hPa 0,0 mm SO 0,3 km/h (0 Bft)
21.10.2020 19:00 9,2 C 84 % 1015,3 hPa 0,0 mm W-SW 0,0 km/h (0 Bft)
21.10.2020 20:00 7,9 C 86 % 1015,5 hPa 0,0 mm W-SW 0,0 km/h (0 Bft)
21.10.2020 21:00 6,9 C 86 % 1015,7 hPa 0,0 mm W-SW 0,0 km/h (0 Bft)
21.10.2020 22:00 6,1 C 87 % 1016,0 hPa 0,0 mm W-SW 0,0 km/h (0 Bft)
21.10.2020 23:00 5,8 C 88 % 1016,6 hPa 0,0 mm W 1,5 km/h (1 Bft)
22.10.2020 00:00 5,6 C 89 % 1017,3 hPa 0,0 mm W 3,6 km/h (1 Bft)
22.10.2020 01:00 5,8 C 91 % 1018,2 hPa 0,0 mm W 5,1 km/h (1 Bft)
22.10.2020 02:00 5,9 C 91 % 1018,4 hPa 0,0 mm W 0,8 km/h (0 Bft)
22.10.2020 03:00 5,0 C 91 % 1018,3 hPa 0,0 mm W 2,3 km/h (1 Bft)
22.10.2020 04:00 4,4 C 91 % 1018,5 hPa 0,0 mm W 3,5 km/h (1 Bft)
22.10.2020 05:00 4,3 C 92 % 1019,3 hPa 0,0 mm W 1,6 km/h (1 Bft)
22.10.2020 06:00 3,9 C 92 % 1019,7 hPa 0,0 mm W 1,7 km/h (1 Bft)
22.10.2020 07:00 3,5 C 92 % 1019,8 hPa 0,0 mm W 0,7 km/h (0 Bft)
22.10.2020 08:00 4,7 C 92 % 1020,1 hPa 0,0 mm W 0,7 km/h (0 Bft)
22.10.2020 09:00 9,8 C 88 % 1019,9 hPa 0,0 mm W 0,0 km/h (0 Bft)
22.10.2020 10:00 12,8 C 83 % 1020,4 hPa 0,0 mm W 0,9 km/h (0 Bft)
22.10.2020 11:00 14,5 C 80 % 1019,9 hPa 0,0 mm O-SO 6,9 km/h (2 Bft)
22.10.2020 12:00 15,9 C 78 % 1019,4 hPa 0,0 mm O-SO 7,1 km/h (2 Bft)
22.10.2020 13:00 15,8 C 76 % 1019,1 hPa 0,0 mm O-SO 8,6 km/h (2 Bft)
22.10.2020 14:00 14,6 C 82 % 1018,6 hPa 0,0 mm O-SO 9,4 km/h (2 Bft)
22.10.2020 15:00 13,8 C 84 % 1018,5 hPa 0,0 mm SO 7,2 km/h (2 Bft)
22.10.2020 16:00 13,2 C 86 % 1018,5 hPa 0,0 mm SO 4,9 km/h (1 Bft)
22.10.2020 17:00 12,8 C 86 % 1018,4 hPa 0,0 mm O-SO 2,8 km/h (1 Bft)
22.10.2020 18:00 11,6 C 85 % 1018,8 hPa 0,0 mm O-SO 0,0 km/h (0 Bft)
22.10.2020 19:00 9,8 C 84 % 1019,1 hPa 0,0 mm O-SO 0,0 km/h (0 Bft)
22.10.2020 20:00 8,4 C 86 % 1019,1 hPa 0,0 mm O-SO 0,4 km/h (0 Bft)
22.10.2020 21:00 7,4 C 86 % 1019,2 hPa 0,0 mm O-SO 0,4 km/h (0 Bft)
22.10.2020 22:00 6,7 C 87 % 1019,3 hPa 0,0 mm O-SO 0,3 km/h (0 Bft)
22.10.2020 23:00 6,3 C 88 % 1019,3 hPa 0,0 mm O-SO 0,4 km/h (0 Bft)
23.10.2020 00:00 5,9 C 89 % 1019,2 hPa 0,0 mm W-SW 3,2 km/h (1 Bft)
23.10.2020 01:00 6,2 C 90 % 1019,3 hPa 0,0 mm W 1,5 km/h (1 Bft)
23.10.2020 02:00 6,1 C 91 % 1019,1 hPa 0,0 mm W 0,4 km/h (0 Bft)
23.10.2020 03:00 6,5 C 91 % 1018,5 hPa 0,0 mm W 3,1 km/h (1 Bft)
23.10.2020 04:00 7,2 C 92 % 1018,3 hPa 0,0 mm W 1,6 km/h (1 Bft)
23.10.2020 05:00 7,9 C 92 % 1018,4 hPa 0,0 mm W 0,7 km/h (0 Bft)
23.10.2020 06:00 8,1 C 92 % 1018,3 hPa 0,0 mm W 0,1 km/h (0 Bft)
23.10.2020 07:00 8,2 C 92 % 1017,8 hPa 0,0 mm W 0,0 km/h (0 Bft)
23.10.2020 08:00 8,0 C 92 % 1017,6 hPa 0,0 mm W 1,2 km/h (1 Bft)
23.10.2020 09:00 8,7 C 92 % 1017,5 hPa 0,0 mm W 0,1 km/h (0 Bft)
23.10.2020 10:00 11,3 C 92 % 1017,2 hPa 0,0 mm W 0,0 km/h (0 Bft)
23.10.2020 11:00 13,7 C 85 % 1017,0 hPa 0,0 mm W 1,1 km/h (0 Bft)
23.10.2020 12:00 14,8 C 83 % 1016,4 hPa 0,0 mm O-SO 5,7 km/h (1 Bft)
23.10.2020 13:00 15,6 C 83 % 1015,5 hPa 0,0 mm O 7,1 km/h (2 Bft)
23.10.2020 14:00 16,3 C 81 % 1014,6 hPa 0,0 mm O-SO 7,9 km/h (2 Bft)
23.10.2020 15:00 16,1 C 82 % 1014,2 hPa 0,0 mm O 6,9 km/h (2 Bft)
23.10.2020 16:00 15,3 C 85 % 1013,9 hPa 0,0 mm O 4,9 km/h (1 Bft)
23.10.2020 17:00 14,7 C 86 % 1014,0 hPa 0,0 mm O-SO 1,3 km/h (1 Bft)
23.10.2020 18:00 13,6 C 86 % 1014,0 hPa 0,0 mm O-SO 0,0 km/h (0 Bft)
23.10.2020 19:00 12,6 C 86 % 1014,6 hPa 0,0 mm O-SO 0,0 km/h (0 Bft)
23.10.2020 20:00 12,0 C 87 % 1014,9 hPa 0,0 mm O-SO 0,0 km/h (0 Bft)
23.10.2020 21:00 11,1 C 88 % 1015,0 hPa 0,0 mm O-SO 1,2 km/h (1 Bft)
23.10.2020 22:00 10,6 C 89 % 1015,8 hPa 0,0 mm W 0,3 km/h (0 Bft)
23.10.2020 23:00 10,6 C 90 % 1015,9 hPa 0,0 mm W 1,1 km/h (0 Bft)
24.10.2020 00:00 10,7 C 90 % 1015,8 hPa 0,0 mm W 0,0 km/h (0 Bft)
24.10.2020 01:00 11,2 C 91 % 1016,3 hPa 0,4 mm W 6,1 km/h (2 Bft)
24.10.2020 02:00 12,0 C 92 % 1016,5 hPa 1,4 mm W 5,4 km/h (1 Bft)
24.10.2020 03:00 12,0 C 92 % 1016,6 hPa 1,8 mm W 8,5 km/h (2 Bft)
24.10.2020 04:00 11,9 C 92 % 1016,7 hPa 0,4 mm W 8,6 km/h (2 Bft)
24.10.2020 05:00 11,6 C 92 % 1016,9 hPa 0,8 mm W 3,9 km/h (1 Bft)
24.10.2020 06:00 11,3 C 92 % 1017,2 hPa 0,2 mm W 0,8 km/h (0 Bft)
24.10.2020 07:00 11,0 C 92 % 1017,4 hPa 0,4 mm W 0,0 km/h (0 Bft)
24.10.2020 08:00 10,9 C 92 % 1017,9 hPa 0,4 mm W 0,4 km/h (0 Bft)
24.10.2020 09:00 11,0 C 93 % 1018,3 hPa 1,4 mm W 0,0 km/h (0 Bft)
24.10.2020 10:00 11,4 C 93 % 1018,5 hPa 0,4 mm W 0,4 km/h (0 Bft)
24.10.2020 11:00 11,9 C 93 % 1018,7 hPa 0,6 mm W 5,5 km/h (1 Bft)
24.10.2020 12:00 12,0 C 93 % 1018,9 hPa 0,6 mm W 6,4 km/h (2 Bft)
24.10.2020 13:00 12,3 C 93 % 1018,6 hPa 0,8 mm W 7,9 km/h (2 Bft)
24.10.2020 14:00 11,9 C 93 % 1018,5 hPa 0,2 mm W 14,0 km/h (3 Bft)
24.10.2020 15:00 11,6 C 93 % 1018,5 hPa 0,0 mm W 9,4 km/h (2 Bft)
24.10.2020 16:00 11,7 C 92 % 1018,5 hPa 0,0 mm W 4,1 km/h (1 Bft)
24.10.2020 17:00 11,7 C 92 % 1018,4 hPa 0,0 mm W 1,6 km/h (1 Bft)
24.10.2020 18:00 11,4 C 92 % 1018,4 hPa 0,0 mm W 0,3 km/h (0 Bft)
24.10.2020 19:00 10,9 C 93 % 1018,5 hPa 0,0 mm W 0,1 km/h (0 Bft)
24.10.2020 20:00 10,4 C 92 % 1018,4 hPa 0,0 mm W 0,0 km/h (0 Bft)
24.10.2020 21:00 9,6 C 93 % 1018,4 hPa 0,0 mm W 0,0 km/h (0 Bft)
24.10.2020 22:00 8,8 C 92 % 1018,4 hPa 0,0 mm W 0,0 km/h (0 Bft)
24.10.2020 23:00 7,9 C 93 % 1018,0 hPa 0,0 mm W 1,1 km/h (0 Bft)
25.10.2020 00:00 7,9 C 93 % 1017,2 hPa 0,0 mm W 0,0 km/h (0 Bft)
25.10.2020 01:00 8,3 C 93 % 1016,6 hPa 0,0 mm W 0,0 km/h (0 Bft)
25.10.2020 02:00 8,5 C 93 % 1016,0 hPa 0,0 mm W 0,1 km/h (0 Bft)
25.10.2020 03:00 8,0 C 93 % 1015,1 hPa 0,2 mm SO 1,5 km/h (1 Bft)
25.10.2020 04:00 8,0 C 93 % 1014,2 hPa 0,0 mm SO 5,9 km/h (2 Bft)
25.10.2020 05:00 8,1 C 93 % 1013,8 hPa 0,0 mm S-SO 4,4 km/h (1 Bft)
25.10.2020 06:00 8,0 C 93 % 1014,0 hPa 0,0 mm W-SW 2,7 km/h (1 Bft)
25.10.2020 07:00 7,5 C 93 % 1013,9 hPa 0,0 mm W-SW 0,7 km/h (0 Bft)
25.10.2020 08:00 8,0 C 94 % 1013,5 hPa 0,0 mm W-SW 1,3 km/h (1 Bft)
25.10.2020 09:00 11,0 C 92 % 1012,9 hPa 0,0 mm SO 2,9 km/h (1 Bft)
25.10.2020 10:00 12,4 C 89 % 1012,2 hPa 0,0 mm O-SO 5,2 km/h (1 Bft)
25.10.2020 11:00 13,6 C 86 % 1011,5 hPa 0,0 mm SO 7,8 km/h (2 Bft)
25.10.2020 12:00 13,9 C 86 % 1010,6 hPa 0,0 mm O-SO 11,8 km/h (2 Bft)
25.10.2020 13:00 13,4 C 88 % 1009,8 hPa 0,0 mm O-SO 11,0 km/h (2 Bft)
25.10.2020 14:00 12,9 C 89 % 1009,3 hPa 0,0 mm O-SO 10,7 km/h (2 Bft)
25.10.2020 15:00 11,7 C 89 % 1009,1 hPa 0,0 mm O-SO 12,0 km/h (2 Bft)
25.10.2020 16:00 9,8 C 90 % 1008,8 hPa 0,0 mm O-SO 11,0 km/h (2 Bft)
25.10.2020 17:00 9,1 C 92 % 1008,7 hPa 0,0 mm O 11,8 km/h (2 Bft)
25.10.2020 18:00 9,1 C 93 % 1008,6 hPa 0,0 mm O 11,0 km/h (2 Bft)
25.10.2020 19:00 8,9 C 93 % 1008,2 hPa 0,0 mm O-SO 7,9 km/h (2 Bft)
25.10.2020 20:00 8,7 C 93 % 1008,0 hPa 0,0 mm O-SO 6,7 km/h (2 Bft)
25.10.2020 21:00 8,4 C 93 % 1008,4 hPa 0,0 mm S-SO 1,5 km/h (1 Bft)
25.10.2020 22:00 8,2 C 93 % 1008,4 hPa 0,0 mm SO 1,3 km/h (1 Bft)
25.10.2020 23:00 7,9 C 93 % 1008,1 hPa 0,0 mm S-SO 0,4 km/h (0 Bft)
Min-Datum _ 20.10.20 21.10.20 25.10.20 - - 19.10.20
_ Min-Zeit 07:55 14:15 23:50 - - 00:00
Minimum _ 0,5 C 65 % 1007,8 hPa - - 0,0 km/h (0 Bft)
Max-Datum _ 23.10.20 25.10.20 19.10.20 24.10.20 - 21.10.20
_ Max-Zeit 14:00 08:15 09:15 03:30 - 14:45
Maximum _ 16,5 C 94 % 1025,2 hPa 1,8 mm - 22,5 km/h
W (4 Bft)
Durchschnitt _ 8,9 C 88 % 1017,6 hPa #10,2 mm W 3,4 km/h (1 Bft)